Kinkler, Texas
Current Conditions -  °F | °C
As of 2:55 PM on Sunday 21 Dec 2014 (Local Time) from K66R Reporting Station
Overcast Overcast  
Wind Chill: 58°   Ceiling: 2000
Heat Index: 58°   Visibility: 10mi
Dew Point: 51°   Wind: 0mph
Humidity: 78%   Direction: NA
Pressure: 29.97"   Gusts: NA
Location:  29.3984°N, 96.8256°W
Report Text: K66R 212055Z AUTO 00000KT 10SM OVC020 15/11 A2997 RMK AO2 T01450108
Loading
Personal Weather Stations






























Interactive Weather Map New forecast layout! Learn more

10-Day Weather Forecast

Advertisements
Track Severe Weather on mobile